sensor_id;sensor_type;location;lat;lon;timestamp;P1;durP1;ratioP1;P2;durP2;ratioP2
13989;SDS011;7069;52.528;13.316;2022-09-09T00:00:24;8.00;;;4.82;;
13989;SDS011;7069;52.528;13.316;2022-09-09T00:02:55;5.50;;;5.00;;
13989;SDS011;7069;52.528;13.316;2022-09-09T00:05:29;5.32;;;4.90;;
13989;SDS011;7069;52.528;13.316;2022-09-09T00:07:59;5.25;;;4.90;;
13989;SDS011;7069;52.528;13.316;2022-09-09T00:10:29;5.05;;;4.65;;
13989;SDS011;7069;52.528;13.316;2022-09-09T00:12:57;5.55;;;5.15;;
13989;SDS011;7069;52.528;13.316;2022-09-09T00:15:29;4.75;;;4.38;;
13989;SDS011;7069;52.528;13.316;2022-09-09T00:18:01;8.20;;;5.45;;
13989;SDS011;7069;52.528;13.316;2022-09-09T00:20:37;6.00;;;5.40;;
13989;SDS011;7069;52.528;13.316;2022-09-09T00:23:11;5.18;;;4.75;;
13989;SDS011;7069;52.528;13.316;2022-09-09T00:25:40;7.22;;;4.68;;
13989;SDS011;7069;52.528;13.316;2022-09-09T00:28:11;5.55;;;5.15;;
13989;SDS011;7069;52.528;13.316;2022-09-09T00:30:40;6.57;;;5.90;;
13989;SDS011;7069;52.528;13.316;2022-09-09T00:33:09;6.32;;;5.72;;
13989;SDS011;7069;52.528;13.316;2022-09-09T00:35:42;5.50;;;5.10;;
13989;SDS011;7069;52.528;13.316;2022-09-09T00:38:11;6.25;;;5.75;;
13989;SDS011;7069;52.528;13.316;2022-09-09T00:40:41;7.63;;;5.93;;
13989;SDS011;7069;52.528;13.316;2022-09-09T00:43:21;6.70;;;6.15;;
13989;SDS011;7069;52.528;13.316;2022-09-09T00:45:59;5.00;;;4.60;;
13989;SDS011;7069;52.528;13.316;2022-09-09T00:48:43;6.68;;;5.88;;
13989;SDS011;7069;52.528;13.316;2022-09-09T00:51:17;6.57;;;6.03;;
13989;SDS011;7069;52.528;13.316;2022-09-09T00:53:57;6.28;;;5.68;;
13989;SDS011;7069;52.528;13.316;2022-09-09T00:56:30;6.38;;;5.78;;
13989;SDS011;7069;52.528;13.316;2022-09-09T00:59:04;6.35;;;5.85;;
13989;SDS011;7069;52.528;13.316;2022-09-09T01:01:38;6.43;;;5.90;;
13989;SDS011;7069;52.528;13.316;2022-09-09T01:04:06;5.72;;;5.22;;
13989;SDS011;7069;52.528;13.316;2022-09-09T01:06:37;5.72;;;5.32;;
13989;SDS011;7069;52.528;13.316;2022-09-09T01:09:07;6.60;;;6.05;;
13989;SDS011;7069;52.528;13.316;2022-09-09T01:11:41;8.68;;;6.07;;
13989;SDS011;7069;52.528;13.316;2022-09-09T01:14:14;5.95;;;5.45;;
13989;SDS011;7069;52.528;13.316;2022-09-09T01:16:45;5.68;;;5.28;;
13989;SDS011;7069;52.528;13.316;2022-09-09T01:19:14;6.70;;;6.13;;
13989;SDS011;7069;52.528;13.316;2022-09-09T01:21:48;5.93;;;5.47;;
13989;SDS011;7069;52.528;13.316;2022-09-09T01:24:20;7.32;;;6.72;;
13989;SDS011;7069;52.528;13.316;2022-09-09T01:26:52;6.72;;;6.03;;
13989;SDS011;7069;52.528;13.316;2022-09-09T01:29:21;6.32;;;5.72;;
13989;SDS011;7069;52.528;13.316;2022-09-09T01:31:52;7.10;;;6.50;;
13989;SDS011;7069;52.528;13.316;2022-09-09T01:34:20;6.40;;;5.90;;
13989;SDS011;7069;52.528;13.316;2022-09-09T01:36:48;5.57;;;5.18;;
13989;SDS011;7069;52.528;13.316;2022-09-09T01:39:18;6.13;;;5.63;;
13989;SDS011;7069;52.528;13.316;2022-09-09T01:41:45;5.93;;;5.38;;
13989;SDS011;7069;52.528;13.316;2022-09-09T01:44:12;6.03;;;5.53;;
13989;SDS011;7069;52.528;13.316;2022-09-09T01:46:39;6.43;;;5.93;;
13989;SDS011;7069;52.528;13.316;2022-09-09T01:49:06;6.55;;;5.95;;
13989;SDS011;7069;52.528;13.316;2022-09-09T01:51:33;6.45;;;5.95;;
13989;SDS011;7069;52.528;13.316;2022-09-09T01:54:00;7.03;;;6.43;;
13989;SDS011;7069;52.528;13.316;2022-09-09T01:56:31;7.93;;;6.55;;
13989;SDS011;7069;52.528;13.316;2022-09-09T01:59:07;6.20;;;5.65;;
13989;SDS011;7069;52.528;13.316;2022-09-09T02:01:54;7.63;;;6.85;;
13989;SDS011;7069;52.528;13.316;2022-09-09T02:04:30;6.32;;;5.72;;
13989;SDS011;7069;52.528;13.316;2022-09-09T02:07:03;6.88;;;6.35;;
13989;SDS011;7069;52.528;13.316;2022-09-09T02:09:32;6.25;;;5.75;;
13989;SDS011;7069;52.528;13.316;2022-09-09T02:12:00;7.50;;;6.07;;
13989;SDS011;7069;52.528;13.316;2022-09-09T02:14:34;6.88;;;6.05;;
13989;SDS011;7069;52.528;13.316;2022-09-09T02:17:05;7.63;;;6.05;;
13989;SDS011;7069;52.528;13.316;2022-09-09T02:19:36;6.35;;;5.75;;
13989;SDS011;7069;52.528;13.316;2022-09-09T02:22:03;6.47;;;5.97;;
13989;SDS011;7069;52.528;13.316;2022-09-09T02:24:30;7.20;;;6.50;;
13989;SDS011;7069;52.528;13.316;2022-09-09T02:26:59;7.25;;;6.50;;
13989;SDS011;7069;52.528;13.316;2022-09-09T02:29:29;6.72;;;6.10;;
13989;SDS011;7069;52.528;13.316;2022-09-09T02:31:59;6.38;;;5.78;;
13989;SDS011;7069;52.528;13.316;2022-09-09T02:34:28;6.13;;;5.53;;
13989;SDS011;7069;52.528;13.316;2022-09-09T02:36:55;7.15;;;6.38;;
13989;SDS011;7069;52.528;13.316;2022-09-09T02:39:25;9.25;;;5.78;;
13989;SDS011;7069;52.528;13.316;2022-09-09T02:41:51;6.57;;;5.97;;
13989;SDS011;7069;52.528;13.316;2022-09-09T02:44:18;7.00;;;5.72;;
13989;SDS011;7069;52.528;13.316;2022-09-09T02:46:50;6.22;;;5.72;;
13989;SDS011;7069;52.528;13.316;2022-09-09T02:49:27;6.30;;;5.80;;
13989;SDS011;7069;52.528;13.316;2022-09-09T02:51:58;6.05;;;5.53;;
13989;SDS011;7069;52.528;13.316;2022-09-09T02:54:28;5.72;;;5.32;;
13989;SDS011;7069;52.528;13.316;2022-09-09T02:56:58;7.32;;;5.63;;
13989;SDS011;7069;52.528;13.316;2022-09-09T02:59:27;8.50;;;6.10;;
13989;SDS011;7069;52.528;13.316;2022-09-09T03:01:55;6.00;;;5.50;;
13989;SDS011;7069;52.528;13.316;2022-09-09T03:04:22;6.82;;;5.97;;
13989;SDS011;7069;52.528;13.316;2022-09-09T03:06:50;6.85;;;6.32;;
13989;SDS011;7069;52.528;13.316;2022-09-09T03:09:17;6.22;;;5.72;;
13989;SDS011;7069;52.528;13.316;2022-09-09T03:11:43;7.07;;;6.13;;
13989;SDS011;7069;52.528;13.316;2022-09-09T03:14:10;5.47;;;5.07;;
13989;SDS011;7069;52.528;13.316;2022-09-09T03:16:37;5.75;;;5.13;;
13989;SDS011;7069;52.528;13.316;2022-09-09T03:19:03;6.72;;;6.00;;
13989;SDS011;7069;52.528;13.316;2022-09-09T03:21:31;5.88;;;5.38;;
13989;SDS011;7069;52.528;13.316;2022-09-09T03:23:59;5.90;;;5.40;;
13989;SDS011;7069;52.528;13.316;2022-09-09T03:26:28;6.05;;;5.45;;
13989;SDS011;7069;52.528;13.316;2022-09-09T03:28:55;6.70;;;6.15;;
13989;SDS011;7069;52.528;13.316;2022-09-09T03:31:21;5.68;;;5.20;;
13989;SDS011;7069;52.528;13.316;2022-09-09T03:33:48;5.30;;;4.57;;
13989;SDS011;7069;52.528;13.316;2022-09-09T03:36:14;5.63;;;5.13;;
13989;SDS011;7069;52.528;13.316;2022-09-09T03:38:41;6.10;;;5.60;;
13989;SDS011;7069;52.528;13.316;2022-09-09T03:41:09;5.95;;;5.38;;
13989;SDS011;7069;52.528;13.316;2022-09-09T03:43:35;5.75;;;5.30;;
13989;SDS011;7069;52.528;13.316;2022-09-09T03:46:02;6.03;;;5.53;;
13989;SDS011;7069;52.528;13.316;2022-09-09T03:48:29;5.45;;;4.95;;
13989;SDS011;7069;52.528;13.316;2022-09-09T03:50:55;5.80;;;4.97;;
13989;SDS011;7069;52.528;13.316;2022-09-09T03:53:25;5.72;;;5.22;;
13989;SDS011;7069;52.528;13.316;2022-09-09T03:55:52;6.20;;;5.60;;
13989;SDS011;7069;52.528;13.316;2022-09-09T03:58:22;5.63;;;5.13;;
13989;SDS011;7069;52.528;13.316;2022-09-09T04:00:52;5.57;;;4.93;;
13989;SDS011;7069;52.528;13.316;2022-09-09T04:03:19;6.03;;;5.53;;
13989;SDS011;7069;52.528;13.316;2022-09-09T04:05:48;6.00;;;4.97;;
13989;SDS011;7069;52.528;13.316;2022-09-09T04:08:16;4.97;;;4.50;;
13989;SDS011;7069;52.528;13.316;2022-09-09T04:10:44;5.72;;;5.15;;
13989;SDS011;7069;52.528;13.316;2022-09-09T04:13:10;6.80;;;5.15;;
13989;SDS011;7069;52.528;13.316;2022-09-09T04:15:40;6.93;;;5.40;;
13989;SDS011;7069;52.528;13.316;2022-09-09T04:18:07;5.32;;;4.82;;
13989;SDS011;7069;52.528;13.316;2022-09-09T04:20:34;5.78;;;5.00;;
13989;SDS011;7069;52.528;13.316;2022-09-09T04:23:00;6.90;;;4.53;;
13989;SDS011;7069;52.528;13.316;2022-09-09T04:25:27;6.50;;;4.68;;
13989;SDS011;7069;52.528;13.316;2022-09-09T04:27:53;6.68;;;4.47;;
13989;SDS011;7069;52.528;13.316;2022-09-09T04:30:21;6.13;;;4.78;;
13989;SDS011;7069;52.528;13.316;2022-09-09T04:32:49;4.90;;;4.50;;
13989;SDS011;7069;52.528;13.316;2022-09-09T04:35:15;5.85;;;5.05;;
13989;SDS011;7069;52.528;13.316;2022-09-09T04:37:43;6.63;;;4.57;;
13989;SDS011;7069;52.528;13.316;2022-09-09T04:40:10;4.85;;;4.20;;
13989;SDS011;7069;52.528;13.316;2022-09-09T04:42:37;5.78;;;5.25;;
13989;SDS011;7069;52.528;13.316;2022-09-09T04:45:04;5.13;;;4.72;;
13989;SDS011;7069;52.528;13.316;2022-09-09T04:47:31;4.97;;;4.57;;
13989;SDS011;7069;52.528;13.316;2022-09-09T04:50:01;5.57;;;4.88;;
13989;SDS011;7069;52.528;13.316;2022-09-09T04:52:28;4.47;;;3.97;;
13989;SDS011;7069;52.528;13.316;2022-09-09T04:54:54;5.75;;;5.05;;
13989;SDS011;7069;52.528;13.316;2022-09-09T04:57:21;9.43;;;5.45;;
13989;SDS011;7069;52.528;13.316;2022-09-09T04:59:48;4.72;;;4.32;;
13989;SDS011;7069;52.528;13.316;2022-09-09T05:02:14;7.10;;;4.28;;
13989;SDS011;7069;52.528;13.316;2022-09-09T05:04:40;4.43;;;4.03;;
13989;SDS011;7069;52.528;13.316;2022-09-09T05:07:08;5.22;;;4.72;;
13989;SDS011;7069;52.528;13.316;2022-09-09T05:09:35;5.97;;;4.30;;
13989;SDS011;7069;52.528;13.316;2022-09-09T05:12:02;4.82;;;4.35;;
13989;SDS011;7069;52.528;13.316;2022-09-09T05:14:29;3.88;;;3.58;;
13989;SDS011;7069;52.528;13.316;2022-09-09T05:16:55;4.75;;;4.28;;
13989;SDS011;7069;52.528;13.316;2022-09-09T05:19:23;4.72;;;4.28;;
13989;SDS011;7069;52.528;13.316;2022-09-09T05:21:49;3.75;;;3.45;;
13989;SDS011;7069;52.528;13.316;2022-09-09T05:24:17;4.65;;;4.28;;
13989;SDS011;7069;52.528;13.316;2022-09-09T05:26:44;4.30;;;3.90;;
13989;SDS011;7069;52.528;13.316;2022-09-09T05:29:10;4.35;;;3.97;;
13989;SDS011;7069;52.528;13.316;2022-09-09T05:31:37;7.45;;;4.07;;
13989;SDS011;7069;52.528;13.316;2022-09-09T05:34:04;4.68;;;4.28;;
13989;SDS011;7069;52.528;13.316;2022-09-09T05:36:30;7.40;;;4.18;;
13989;SDS011;7069;52.528;13.316;2022-09-09T05:38:57;3.90;;;3.50;;
13989;SDS011;7069;52.528;13.316;2022-09-09T05:41:25;3.42;;;3.17;;
13989;SDS011;7069;52.528;13.316;2022-09-09T05:43:52;3.83;;;3.45;;
13989;SDS011;7069;52.528;13.316;2022-09-09T05:46:19;6.05;;;3.47;;
13989;SDS011;7069;52.528;13.316;2022-09-09T05:48:47;4.10;;;3.75;;
13989;SDS011;7069;52.528;13.316;2022-09-09T05:51:16;4.05;;;3.65;;
13989;SDS011;7069;52.528;13.316;2022-09-09T05:53:43;6.25;;;3.72;;
13989;SDS011;7069;52.528;13.316;2022-09-09T05:56:11;4.82;;;3.95;;
13989;SDS011;7069;52.528;13.316;2022-09-09T05:58:40;3.92;;;3.55;;
13989;SDS011;7069;52.528;13.316;2022-09-09T06:01:09;3.83;;;3.53;;
13989;SDS011;7069;52.528;13.316;2022-09-09T06:03:37;4.40;;;4.00;;
13989;SDS011;7069;52.528;13.316;2022-09-09T06:06:05;4.13;;;3.55;;
13989;SDS011;7069;52.528;13.316;2022-09-09T06:08:32;6.95;;;4.43;;
13989;SDS011;7069;52.528;13.316;2022-09-09T06:11:03;3.70;;;3.35;;
13989;SDS011;7069;52.528;13.316;2022-09-09T06:13:30;4.22;;;3.67;;
13989;SDS011;7069;52.528;13.316;2022-09-09T06:15:59;8.38;;;4.00;;
13989;SDS011;7069;52.528;13.316;2022-09-09T06:18:25;8.90;;;4.40;;
13989;SDS011;7069;52.528;13.316;2022-09-09T06:20:55;4.78;;;3.47;;
13989;SDS011;7069;52.528;13.316;2022-09-09T06:23:23;4.53;;;2.97;;
13989;SDS011;7069;52.528;13.316;2022-09-09T06:25:50;6.05;;;3.90;;
13989;SDS011;7069;52.528;13.316;2022-09-09T06:28:17;5.07;;;3.45;;
13989;SDS011;7069;52.528;13.316;2022-09-09T06:30:44;6.50;;;4.57;;
13989;SDS011;7069;52.528;13.316;2022-09-09T06:33:11;3.53;;;3.22;;
13989;SDS011;7069;52.528;13.316;2022-09-09T06:35:38;4.60;;;3.17;;
13989;SDS011;7069;52.528;13.316;2022-09-09T06:38:04;3.85;;;2.90;;
13989;SDS011;7069;52.528;13.316;2022-09-09T06:40:31;4.45;;;3.55;;
13989;SDS011;7069;52.528;13.316;2022-09-09T06:42:59;3.65;;;2.75;;
13989;SDS011;7069;52.528;13.316;2022-09-09T06:45:26;4.47;;;2.58;;
13989;SDS011;7069;52.528;13.316;2022-09-09T06:47:54;3.83;;;3.42;;
13989;SDS011;7069;52.528;13.316;2022-09-09T06:50:22;4.20;;;3.42;;
13989;SDS011;7069;52.528;13.316;2022-09-09T06:52:49;5.00;;;3.70;;
13989;SDS011;7069;52.528;13.316;2022-09-09T06:55:16;3.53;;;3.22;;
13989;SDS011;7069;52.528;13.316;2022-09-09T06:57:43;6.97;;;4.00;;
13989;SDS011;7069;52.528;13.316;2022-09-09T07:00:10;9.73;;;4.68;;
13989;SDS011;7069;52.528;13.316;2022-09-09T07:02:39;14.50;;;5.07;;
13989;SDS011;7069;52.528;13.316;2022-09-09T07:05:06;5.68;;;3.53;;
13989;SDS011;7069;52.528;13.316;2022-09-09T07:07:35;2.72;;;2.47;;
13989;SDS011;7069;52.528;13.316;2022-09-09T07:10:02;4.45;;;2.72;;
13989;SDS011;7069;52.528;13.316;2022-09-09T07:12:29;2.90;;;2.60;;
13989;SDS011;7069;52.528;13.316;2022-09-09T07:14:56;4.55;;;2.72;;
13989;SDS011;7069;52.528;13.316;2022-09-09T07:17:22;2.92;;;2.67;;
13989;SDS011;7069;52.528;13.316;2022-09-09T07:19:49;4.78;;;2.60;;
13989;SDS011;7069;52.528;13.316;2022-09-09T07:22:16;4.05;;;2.00;;
13989;SDS011;7069;52.528;13.316;2022-09-09T07:24:43;6.40;;;2.67;;
13989;SDS011;7069;52.528;13.316;2022-09-09T07:27:10;3.90;;;2.42;;
13989;SDS011;7069;52.528;13.316;2022-09-09T07:29:37;5.45;;;2.53;;
13989;SDS011;7069;52.528;13.316;2022-09-09T07:32:03;2.38;;;1.85;;
13989;SDS011;7069;52.528;13.316;2022-09-09T07:34:30;3.28;;;2.50;;
13989;SDS011;7069;52.528;13.316;2022-09-09T07:36:57;4.47;;;2.28;;
13989;SDS011;7069;52.528;13.316;2022-09-09T07:39:24;3.50;;;1.92;;
13989;SDS011;7069;52.528;13.316;2022-09-09T07:41:52;2.78;;;1.83;;
13989;SDS011;7069;52.528;13.316;2022-09-09T07:44:20;6.20;;;2.17;;
13989;SDS011;7069;52.528;13.316;2022-09-09T07:46:47;2.38;;;1.45;;
13989;SDS011;7069;52.528;13.316;2022-09-09T07:49:14;4.32;;;2.15;;
13989;SDS011;7069;52.528;13.316;2022-09-09T07:51:43;2.75;;;1.60;;
13989;SDS011;7069;52.528;13.316;2022-09-09T07:54:11;4.57;;;2.08;;
13989;SDS011;7069;52.528;13.316;2022-09-09T07:56:39;3.75;;;1.60;;
13989;SDS011;7069;52.528;13.316;2022-09-09T07:59:08;3.28;;;1.75;;
13989;SDS011;7069;52.528;13.316;2022-09-09T08:01:35;1.70;;;1.60;;
13989;SDS011;7069;52.528;13.316;2022-09-09T08:04:04;2.83;;;1.80;;
13989;SDS011;7069;52.528;13.316;2022-09-09T08:06:34;3.75;;;1.52;;
13989;SDS011;7069;52.528;13.316;2022-09-09T08:09:02;3.63;;;1.88;;
13989;SDS011;7069;52.528;13.316;2022-09-09T08:11:29;4.03;;;1.92;;
13989;SDS011;7069;52.528;13.316;2022-09-09T08:13:58;3.15;;;1.75;;
13989;SDS011;7069;52.528;13.316;2022-09-09T08:16:27;1.60;;;1.50;;
13989;SDS011;7069;52.528;13.316;2022-09-09T08:18:55;2.88;;;1.25;;
13989;SDS011;7069;52.528;13.316;2022-09-09T08:21:22;4.70;;;1.95;;
13989;SDS011;7069;52.528;13.316;2022-09-09T08:23:50;6.32;;;1.95;;
13989;SDS011;7069;52.528;13.316;2022-09-09T08:26:18;4.50;;;1.67;;
13989;SDS011;7069;52.528;13.316;2022-09-09T08:28:47;3.80;;;1.60;;
13989;SDS011;7069;52.528;13.316;2022-09-09T08:31:17;1.42;;;1.33;;
13989;SDS011;7069;52.528;13.316;2022-09-09T08:33:45;2.08;;;1.52;;
13989;SDS011;7069;52.528;13.316;2022-09-09T08:36:13;2.30;;;1.63;;
13989;SDS011;7069;52.528;13.316;2022-09-09T08:38:41;2.10;;;1.35;;
13989;SDS011;7069;52.528;13.316;2022-09-09T08:44:06;1.25;;;1.15;;
13989;SDS011;7069;52.528;13.316;2022-09-09T08:46:36;3.17;;;1.58;;
13989;SDS011;7069;52.528;13.316;2022-09-09T08:49:11;3.20;;;1.50;;
13989;SDS011;7069;52.528;13.316;2022-09-09T08:51:44;1.98;;;1.60;;
13989;SDS011;7069;52.528;13.316;2022-09-09T08:54:11;3.65;;;1.88;;
13989;SDS011;7069;52.528;13.316;2022-09-09T08:56:38;2.58;;;1.88;;
13989;SDS011;7069;52.528;13.316;2022-09-09T08:59:04;2.38;;;1.38;;
13989;SDS011;7069;52.528;13.316;2022-09-09T09:04:27;3.10;;;1.60;;
13989;SDS011;7069;52.528;13.316;2022-09-09T09:07:02;1.67;;;1.58;;
13989;SDS011;7069;52.528;13.316;2022-09-09T09:09:36;2.97;;;1.75;;
13989;SDS011;7069;52.528;13.316;2022-09-09T09:12:10;5.88;;;2.17;;
13989;SDS011;7069;52.528;13.316;2022-09-09T09:14:41;2.35;;;1.27;;
13989;SDS011;7069;52.528;13.316;2022-09-09T09:17:11;3.55;;;1.98;;
13989;SDS011;7069;52.528;13.316;2022-09-09T09:19:41;3.67;;;1.80;;
13989;SDS011;7069;52.528;13.316;2022-09-09T09:22:10;3.25;;;1.45;;
13989;SDS011;7069;52.528;13.316;2022-09-09T09:24:45;3.38;;;1.63;;
13989;SDS011;7069;52.528;13.316;2022-09-09T09:27:18;3.40;;;2.08;;
13989;SDS011;7069;52.528;13.316;2022-09-09T09:29:48;2.83;;;1.70;;
13989;SDS011;7069;52.528;13.316;2022-09-09T09:32:17;1.77;;;1.20;;
13989;SDS011;7069;52.528;13.316;2022-09-09T09:34:49;3.53;;;1.95;;
13989;SDS011;7069;52.528;13.316;2022-09-09T09:37:16;3.35;;;1.20;;
13989;SDS011;7069;52.528;13.316;2022-09-09T09:39:45;2.40;;;1.38;;
13989;SDS011;7069;52.528;13.316;2022-09-09T09:42:12;2.28;;;1.30;;
13989;SDS011;7069;52.528;13.316;2022-09-09T09:44:40;2.60;;;1.58;;
13989;SDS011;7069;52.528;13.316;2022-09-09T09:47:08;2.65;;;1.85;;
13989;SDS011;7069;52.528;13.316;2022-09-09T09:49:37;3.80;;;1.50;;
13989;SDS011;7069;52.528;13.316;2022-09-09T09:52:05;5.35;;;1.67;;
13989;SDS011;7069;52.528;13.316;2022-09-09T09:54:33;2.83;;;1.33;;
13989;SDS011;7069;52.528;13.316;2022-09-09T09:57:08;1.45;;;1.27;;
13989;SDS011;7069;52.528;13.316;2022-09-09T09:59:35;2.38;;;1.33;;
13989;SDS011;7069;52.528;13.316;2022-09-09T10:02:17;2.45;;;1.55;;
13989;SDS011;7069;52.528;13.316;2022-09-09T10:04:45;3.95;;;1.60;;
13989;SDS011;7069;52.528;13.316;2022-09-09T10:07:17;2.08;;;1.30;;
13989;SDS011;7069;52.528;13.316;2022-09-09T10:09:44;5.85;;;1.63;;
13989;SDS011;7069;52.528;13.316;2022-09-09T10:12:14;8.35;;;1.77;;
13989;SDS011;7069;52.528;13.316;2022-09-09T10:14:45;3.75;;;1.75;;
13989;SDS011;7069;52.528;13.316;2022-09-09T10:17:19;3.17;;;1.77;;
13989;SDS011;7069;52.528;13.316;2022-09-09T10:19:54;2.28;;;1.48;;
13989;SDS011;7069;52.528;13.316;2022-09-09T10:22:27;3.33;;;1.40;;
13989;SDS011;7069;52.528;13.316;2022-09-09T10:27:59;4.68;;;1.45;;
13989;SDS011;7069;52.528;13.316;2022-09-09T10:30:39;4.20;;;1.52;;
13989;SDS011;7069;52.528;13.316;2022-09-09T10:33:16;1.50;;;1.38;;
13989;SDS011;7069;52.528;13.316;2022-09-09T10:35:50;2.55;;;1.30;;
13989;SDS011;7069;52.528;13.316;2022-09-09T10:38:23;3.22;;;1.45;;
13989;SDS011;7069;52.528;13.316;2022-09-09T10:43:46;4.90;;;1.48;;
13989;SDS011;7069;52.528;13.316;2022-09-09T10:46:26;4.05;;;1.30;;
13989;SDS011;7069;52.528;13.316;2022-09-09T10:49:00;3.50;;;1.20;;
13989;SDS011;7069;52.528;13.316;2022-09-09T10:51:36;2.17;;;1.13;;
13989;SDS011;7069;52.528;13.316;2022-09-09T10:54:13;1.65;;;1.10;;
13989;SDS011;7069;52.528;13.316;2022-09-09T10:56:48;8.05;;;1.67;;
13989;SDS011;7069;52.528;13.316;2022-09-09T10:59:27;1.25;;;0.85;;
13989;SDS011;7069;52.528;13.316;2022-09-09T11:01:56;2.10;;;1.65;;
13989;SDS011;7069;52.528;13.316;2022-09-09T11:04:25;1.48;;;1.08;;
13989;SDS011;7069;52.528;13.316;2022-09-09T11:06:54;1.92;;;1.00;;
13989;SDS011;7069;52.528;13.316;2022-09-09T11:09:23;1.20;;;1.10;;
13989;SDS011;7069;52.528;13.316;2022-09-09T11:11:55;4.20;;;1.40;;
13989;SDS011;7069;52.528;13.316;2022-09-09T11:14:26;3.20;;;1.42;;
13989;SDS011;7069;52.528;13.316;2022-09-09T11:16:56;3.30;;;1.52;;
13989;SDS011;7069;52.528;13.316;2022-09-09T11:19:27;3.38;;;1.45;;
13989;SDS011;7069;52.528;13.316;2022-09-09T11:21:56;1.85;;;1.08;;
13989;SDS011;7069;52.528;13.316;2022-09-09T11:24:25;3.03;;;1.58;;
13989;SDS011;7069;52.528;13.316;2022-09-09T11:26:55;1.83;;;1.00;;
13989;SDS011;7069;52.528;13.316;2022-09-09T11:32:45;1.25;;;1.15;;
13989;SDS011;7069;52.528;13.316;2022-09-09T11:35:23;1.48;;;0.90;;
13989;SDS011;7069;52.528;13.316;2022-09-09T11:40:47;1.25;;;0.73;;
13989;SDS011;7069;52.528;13.316;2022-09-09T11:43:21;2.20;;;0.98;;
13989;SDS011;7069;52.528;13.316;2022-09-09T11:45:51;1.48;;;0.70;;
13989;SDS011;7069;52.528;13.316;2022-09-09T11:48:24;0.80;;;0.70;;
13989;SDS011;7069;52.528;13.316;2022-09-09T11:50:57;0.90;;;0.70;;
13989;SDS011;7069;52.528;13.316;2022-09-09T11:53:25;1.05;;;0.75;;
13989;SDS011;7069;52.528;13.316;2022-09-09T11:56:04;1.38;;;1.05;;
13989;SDS011;7069;52.528;13.316;2022-09-09T11:58:42;2.85;;;1.27;;
13989;SDS011;7069;52.528;13.316;2022-09-09T12:01:14;1.30;;;1.00;;
13989;SDS011;7069;52.528;13.316;2022-09-09T12:03:51;1.80;;;0.98;;
13989;SDS011;7069;52.528;13.316;2022-09-09T12:06:26;1.35;;;0.85;;
13989;SDS011;7069;52.528;13.316;2022-09-09T12:08:57;1.40;;;0.80;;
13989;SDS011;7069;52.528;13.316;2022-09-09T12:11:27;2.45;;;0.88;;
13989;SDS011;7069;52.528;13.316;2022-09-09T12:13:56;4.38;;;2.75;;
13989;SDS011;7069;52.528;13.316;2022-09-09T12:16:31;2.50;;;2.30;;
13989;SDS011;7069;52.528;13.316;2022-09-09T12:19:03;4.15;;;1.88;;
13989;SDS011;7069;52.528;13.316;2022-09-09T12:21:33;1.73;;;1.25;;
13989;SDS011;7069;52.528;13.316;2022-09-09T12:24:04;4.47;;;1.38;;
13989;SDS011;7069;52.528;13.316;2022-09-09T12:26:35;2.25;;;1.08;;
13989;SDS011;7069;52.528;13.316;2022-09-09T12:29:06;2.50;;;1.00;;
13989;SDS011;7069;52.528;13.316;2022-09-09T12:31:44;2.70;;;1.13;;
13989;SDS011;7069;52.528;13.316;2022-09-09T12:34:14;0.93;;;0.93;;
13989;SDS011;7069;52.528;13.316;2022-09-09T12:36:43;2.53;;;1.15;;
13989;SDS011;7069;52.528;13.316;2022-09-09T12:39:15;1.90;;;0.85;;
13989;SDS011;7069;52.528;13.316;2022-09-09T12:41:51;2.67;;;1.52;;
13989;SDS011;7069;52.528;13.316;2022-09-09T12:44:21;1.30;;;0.73;;
13989;SDS011;7069;52.528;13.316;2022-09-09T12:46:47;0.68;;;0.68;;
13989;SDS011;7069;52.528;13.316;2022-09-09T12:49:26;5.80;;;0.90;;
13989;SDS011;7069;52.528;13.316;2022-09-09T12:51:56;0.65;;;0.60;;
13989;SDS011;7069;52.528;13.316;2022-09-09T12:54:23;2.58;;;1.10;;
13989;SDS011;7069;52.528;13.316;2022-09-09T12:56:51;2.55;;;0.88;;
13989;SDS011;7069;52.528;13.316;2022-09-09T12:59:21;3.28;;;0.88;;
13989;SDS011;7069;52.528;13.316;2022-09-09T13:01:54;1.13;;;0.82;;
13989;SDS011;7069;52.528;13.316;2022-09-09T13:04:21;2.22;;;0.75;;
13989;SDS011;7069;52.528;13.316;2022-09-09T13:06:48;4.40;;;0.77;;
13989;SDS011;7069;52.528;13.316;2022-09-09T13:09:14;2.10;;;0.95;;
13989;SDS011;7069;52.528;13.316;2022-09-09T13:11:41;1.95;;;0.60;;
13989;SDS011;7069;52.528;13.316;2022-09-09T13:14:13;1.23;;;0.90;;
13989;SDS011;7069;52.528;13.316;2022-09-09T13:16:53;2.15;;;0.85;;
13989;SDS011;7069;52.528;13.316;2022-09-09T13:19:21;2.65;;;1.25;;
13989;SDS011;7069;52.528;13.316;2022-09-09T13:21:50;1.25;;;1.05;;
13989;SDS011;7069;52.528;13.316;2022-09-09T13:24:24;2.00;;;1.02;;
13989;SDS011;7069;52.528;13.316;2022-09-09T13:26:54;3.13;;;0.70;;
13989;SDS011;7069;52.528;13.316;2022-09-09T13:29:23;2.20;;;0.85;;
13989;SDS011;7069;52.528;13.316;2022-09-09T13:31:50;2.47;;;0.85;;
13989;SDS011;7069;52.528;13.316;2022-09-09T13:34:28;2.70;;;1.23;;
13989;SDS011;7069;52.528;13.316;2022-09-09T13:36:58;3.17;;;1.35;;
13989;SDS011;7069;52.528;13.316;2022-09-09T13:39:27;3.05;;;1.00;;
13989;SDS011;7069;52.528;13.316;2022-09-09T13:41:54;1.20;;;0.80;;
13989;SDS011;7069;52.528;13.316;2022-09-09T13:44:24;2.42;;;1.30;;
13989;SDS011;7069;52.528;13.316;2022-09-09T13:47:02;2.20;;;0.90;;
13989;SDS011;7069;52.528;13.316;2022-09-09T13:49:30;1.17;;;0.63;;
13989;SDS011;7069;52.528;13.316;2022-09-09T13:52:05;2.22;;;0.93;;
13989;SDS011;7069;52.528;13.316;2022-09-09T13:54:36;2.95;;;1.23;;
13989;SDS011;7069;52.528;13.316;2022-09-09T13:57:02;2.10;;;0.95;;
13989;SDS011;7069;52.528;13.316;2022-09-09T13:59:31;4.60;;;1.20;;
13989;SDS011;7069;52.528;13.316;2022-09-09T14:01:57;9.23;;;1.45;;
13989;SDS011;7069;52.528;13.316;2022-09-09T14:04:24;2.55;;;1.05;;
13989;SDS011;7069;52.528;13.316;2022-09-09T14:06:50;1.08;;;0.98;;
13989;SDS011;7069;52.528;13.316;2022-09-09T14:09:18;7.13;;;1.15;;
13989;SDS011;7069;52.528;13.316;2022-09-09T14:11:45;1.63;;;1.00;;
13989;SDS011;7069;52.528;13.316;2022-09-09T14:14:11;2.38;;;1.00;;
13989;SDS011;7069;52.528;13.316;2022-09-09T14:16:39;2.20;;;0.77;;
13989;SDS011;7069;52.528;13.316;2022-09-09T14:19:07;1.17;;;1.00;;
13989;SDS011;7069;52.528;13.316;2022-09-09T14:21:34;2.78;;;1.60;;
13989;SDS011;7069;52.528;13.316;2022-09-09T14:24:01;3.00;;;1.27;;
13989;SDS011;7069;52.528;13.316;2022-09-09T14:26:27;2.35;;;1.30;;
13989;SDS011;7069;52.528;13.316;2022-09-09T14:28:55;2.15;;;1.00;;
13989;SDS011;7069;52.528;13.316;2022-09-09T14:31:21;0.90;;;0.80;;
13989;SDS011;7069;52.528;13.316;2022-09-09T14:33:49;2.83;;;0.95;;
13989;SDS011;7069;52.528;13.316;2022-09-09T14:36:17;1.45;;;0.80;;
13989;SDS011;7069;52.528;13.316;2022-09-09T14:38:43;6.75;;;1.60;;
13989;SDS011;7069;52.528;13.316;2022-09-09T14:41:10;2.42;;;1.00;;
13989;SDS011;7069;52.528;13.316;2022-09-09T14:43:38;1.13;;;0.98;;
13989;SDS011;7069;52.528;13.316;2022-09-09T14:46:05;7.35;;;1.15;;
13989;SDS011;7069;52.528;13.316;2022-09-09T14:48:32;1.27;;;1.15;;
13989;SDS011;7069;52.528;13.316;2022-09-09T14:51:05;1.33;;;0.93;;
13989;SDS011;7069;52.528;13.316;2022-09-09T14:53:33;2.70;;;1.05;;
13989;SDS011;7069;52.528;13.316;2022-09-09T14:56:03;2.85;;;1.20;;
13989;SDS011;7069;52.528;13.316;2022-09-09T14:58:31;2.75;;;1.20;;
13989;SDS011;7069;52.528;13.316;2022-09-09T15:01:01;2.05;;;0.90;;
13989;SDS011;7069;52.528;13.316;2022-09-09T15:03:29;3.05;;;0.88;;
13989;SDS011;7069;52.528;13.316;2022-09-09T15:05:55;2.45;;;1.23;;
13989;SDS011;7069;52.528;13.316;2022-09-09T15:08:24;4.97;;;1.38;;
13989;SDS011;7069;52.528;13.316;2022-09-09T15:10:58;3.03;;;1.58;;
13989;SDS011;7069;52.528;13.316;2022-09-09T15:13:25;2.25;;;1.13;;
13989;SDS011;7069;52.528;13.316;2022-09-09T15:15:51;1.77;;;1.00;;
13989;SDS011;7069;52.528;13.316;2022-09-09T15:18:19;0.93;;;0.57;;